createdAt,value
2022-11-03T09:53:59.555Z,13.98
2022-11-03T09:55:33.208Z,14.88
2022-11-03T09:57:13.668Z,14.43
2022-11-03T09:58:48.634Z,16.05
2022-11-03T10:00:26.620Z,15.10
2022-11-03T10:01:58.951Z,14.85
2022-11-03T10:03:31.443Z,15.27
2022-11-03T10:05:09.831Z,14.03
2022-11-03T10:06:43.363Z,14.45
2022-11-03T10:08:25.735Z,15.55
2022-11-03T10:10:01.809Z,19.08
2022-11-03T10:11:35.073Z,17.20
2022-11-03T10:14:43.134Z,15.93
2022-11-03T10:16:19.482Z,13.80
2022-11-03T10:17:52.113Z,13.85
2022-11-03T10:19:25.318Z,13.88
2022-11-03T10:20:59.469Z,14.98
2022-11-03T10:22:31.912Z,14.25
2022-11-03T10:24:04.851Z,15.57
2022-11-03T10:25:42.397Z,15.65
2022-11-03T10:27:25.863Z,17.85
2022-11-03T10:29:00.836Z,13.50
2022-11-03T10:30:45.299Z,15.63
2022-11-03T10:32:34.694Z,13.63
2022-11-03T10:34:34.746Z,15.13
2022-11-03T10:36:16.019Z,14.43
2022-11-03T10:37:48.255Z,15.52
2022-11-03T10:39:34.097Z,18.00
2022-11-03T10:41:28.164Z,15.30
2022-11-03T10:43:00.554Z,16.20
2022-11-03T10:44:32.682Z,14.57
2022-11-03T10:46:36.557Z,15.30
2022-11-03T10:49:43.814Z,14.50
2022-11-03T10:51:16.765Z,15.68
2022-11-03T10:52:49.984Z,13.50
2022-11-03T10:54:24.249Z,14.13
2022-11-03T10:55:57.768Z,14.13
2022-11-03T10:57:30.519Z,17.77
2022-11-03T10:59:03.170Z,14.68
2022-11-03T11:00:35.438Z,16.75
2022-11-03T11:02:19.482Z,16.73
2022-11-03T11:03:52.025Z,14.48
2022-11-03T11:05:25.195Z,15.73
2022-11-03T11:06:57.409Z,15.15
2022-11-03T11:08:29.681Z,18.63
2022-11-03T11:10:09.376Z,14.82
2022-11-03T11:11:59.849Z,16.52
2022-11-03T11:13:32.093Z,14.45
2022-11-03T11:15:50.695Z,16.83
2022-11-03T11:17:42.377Z,16.67
2022-11-03T11:19:14.601Z,16.08
2022-11-03T11:20:47.254Z,15.50
2022-11-03T11:22:22.878Z,13.45
2022-11-03T11:23:55.218Z,14.50
2022-11-03T11:27:40.662Z,14.15
2022-11-03T11:29:13.872Z,16.92
2022-11-03T11:31:23.056Z,16.48
2022-11-03T11:33:24.989Z,14.20
2022-11-03T11:34:57.327Z,15.38
2022-11-03T11:36:29.896Z,16.40
2022-11-03T11:38:40.376Z,12.52
2022-11-03T11:40:26.804Z,13.20
2022-11-03T11:42:21.455Z,13.95
2022-11-03T11:43:53.643Z,14.73
2022-11-03T11:46:03.175Z,13.70
2022-11-03T11:47:40.941Z,14.98
2022-11-03T11:49:13.126Z,13.85
2022-11-03T11:50:45.507Z,12.13
2022-11-03T11:52:19.137Z,14.57
2022-11-03T11:54:16.271Z,15.50
2022-11-03T11:57:22.115Z,14.40
2022-11-03T11:58:57.658Z,13.55
2022-11-03T12:00:31.839Z,14.82
2022-11-03T12:02:04.588Z,13.13
2022-11-03T12:03:43.135Z,24.95
2022-11-03T12:05:23.923Z,13.82
2022-11-03T12:06:57.031Z,18.92
2022-11-03T12:08:31.383Z,14.50
2022-11-03T12:10:17.512Z,15.65
2022-11-03T12:11:57.189Z,13.93
2022-11-03T12:13:51.725Z,14.23
2022-11-03T12:15:52.149Z,13.83
2022-11-03T12:17:24.373Z,17.15
2022-11-03T12:18:56.884Z,16.90
2022-11-03T12:20:36.762Z,15.85
2022-11-03T12:22:29.788Z,16.13
2022-11-03T12:24:02.095Z,13.07
2022-11-03T12:27:24.859Z,15.23
2022-11-03T12:28:57.187Z,16.48
2022-11-03T12:30:34.375Z,13.65
2022-11-03T12:32:25.658Z,21.52
2022-11-03T12:34:02.746Z,20.63
2022-11-03T12:35:35.151Z,14.85
2022-11-03T13:01:22.899Z,14.02
2022-11-03T13:02:55.262Z,16.27
2022-11-03T13:04:27.475Z,16.90
2022-11-03T13:06:00.375Z,13.32
2022-11-03T13:07:34.899Z,14.00
2022-11-03T13:09:07.541Z,12.82
2022-11-03T13:10:41.058Z,15.20
2022-11-03T13:12:31.741Z,12.77
2022-11-03T13:14:06.182Z,12.57
2022-11-03T13:15:38.447Z,14.88
2022-11-03T13:17:10.804Z,15.63
2022-11-03T13:18:43.034Z,13.45
2022-11-03T13:20:18.903Z,15.10
2022-11-03T13:21:51.041Z,12.05
2022-11-03T13:23:23.358Z,15.68
2022-11-03T13:24:55.568Z,11.77
2022-11-03T13:26:27.990Z,10.77
2022-11-03T13:28:00.253Z,13.33
2022-11-03T13:29:35.376Z,13.55
2022-11-03T13:31:07.975Z,14.45
2022-11-03T13:32:40.144Z,12.15
2022-11-03T13:34:12.476Z,13.30
2022-11-03T13:36:40.738Z,13.90
2022-11-03T13:38:13.009Z,11.75
2022-11-03T13:39:45.007Z,12.88
2022-11-03T13:41:17.230Z,12.75
2022-11-03T13:42:49.809Z,12.50
2022-11-03T13:44:21.882Z,14.45
2022-11-03T13:45:54.083Z,11.30
2022-11-03T13:47:44.081Z,12.88
2022-11-03T13:51:12.901Z,12.73
2022-11-03T13:52:45.559Z,13.65
2022-11-03T13:56:15.015Z,14.57
2022-11-03T13:59:43.750Z,11.38
2022-11-03T14:01:16.230Z,12.35
2022-11-03T14:04:44.510Z,12.77
2022-11-03T14:07:49.313Z,11.90
2022-11-03T14:10:53.735Z,11.73
2022-11-03T14:12:32.070Z,12.35
2022-11-03T14:14:04.462Z,13.38
2022-11-03T14:15:37.182Z,11.60
2022-11-03T14:17:09.790Z,11.27
2022-11-03T14:18:42.309Z,10.95
2022-11-03T14:20:15.345Z,16.13
2022-11-03T14:21:47.514Z,11.70
2022-11-03T14:23:20.133Z,12.95
2022-11-03T14:24:52.807Z,11.57
2022-11-03T14:26:41.214Z,12.48
2022-11-03T14:28:20.644Z,13.10
2022-11-03T14:29:56.664Z,11.13
2022-11-03T14:31:29.114Z,12.57
2022-11-03T14:33:01.390Z,12.57
2022-11-03T14:34:33.845Z,13.48
2022-11-03T14:36:06.362Z,12.55
2022-11-03T14:37:39.069Z,13.13
2022-11-03T14:39:11.529Z,12.93
2022-11-03T14:41:02.362Z,12.00
2022-11-03T14:42:34.693Z,12.02
2022-11-03T14:44:07.289Z,12.60
2022-11-03T14:45:42.489Z,12.23
2022-11-03T14:47:19.686Z,13.15
2022-11-03T14:48:52.020Z,15.32
2022-11-03T14:50:24.448Z,20.15
2022-11-03T14:52:00.322Z,13.00
2022-11-03T14:53:33.601Z,12.65
2022-11-03T14:56:37.998Z,16.60
2022-11-03T14:58:10.436Z,23.77
2022-11-03T14:59:42.686Z,20.77
2022-11-03T15:01:14.934Z,27.55
2022-11-03T15:02:47.296Z,36.30
2022-11-03T15:04:19.692Z,30.35
2022-11-03T15:05:54.879Z,23.87
2022-11-03T15:07:27.370Z,23.55
2022-11-03T15:08:59.566Z,33.67
2022-11-03T15:10:31.815Z,30.67
2022-11-03T15:12:04.308Z,28.60
2022-11-03T15:13:41.752Z,34.95
2022-11-03T15:15:18.561Z,24.08
2022-11-03T15:16:50.967Z,21.92
2022-11-03T15:18:24.197Z,18.08
2022-11-03T15:19:56.652Z,18.95
2022-11-03T15:21:29.135Z,16.88
2022-11-03T15:26:46.948Z,15.50
2022-11-03T15:28:21.491Z,16.30
2022-11-03T15:29:53.836Z,16.73
2022-11-03T15:31:26.148Z,13.15
2022-11-03T15:32:58.443Z,15.93
2022-11-03T15:34:30.539Z,18.48
2022-11-03T15:36:04.871Z,18.83
2022-11-03T15:37:37.105Z,19.73
2022-11-03T15:39:09.968Z,27.45
2022-11-03T15:40:42.323Z,27.80
2022-11-03T15:42:14.466Z,31.52
2022-11-03T15:43:51.054Z,22.95
2022-11-03T15:45:23.392Z,17.02
2022-11-03T15:46:55.601Z,19.25
2022-11-03T15:48:32.074Z,15.35
2022-11-03T15:50:08.052Z,16.77
2022-11-03T15:51:40.257Z,18.58
2022-11-03T15:53:12.427Z,19.15
2022-11-03T15:54:44.699Z,23.98
2022-11-03T15:56:16.842Z,20.30
2022-11-03T15:57:49.475Z,27.23
2022-11-03T15:59:22.026Z,38.72
2022-11-03T16:00:54.286Z,18.05
2022-11-03T16:02:40.707Z,17.80
2022-11-03T16:04:14.055Z,16.00
2022-11-03T16:05:46.236Z,17.88
2022-11-03T16:07:18.347Z,17.85
2022-11-03T16:08:50.501Z,19.65
2022-11-03T16:10:22.828Z,21.75
2022-11-03T16:11:57.237Z,22.20
2022-11-03T16:13:29.532Z,14.05
2022-11-03T16:15:01.992Z,20.02
2022-11-03T16:16:34.337Z,28.23
2022-11-03T16:18:07.352Z,16.27
2022-11-03T16:19:40.058Z,21.55
2022-11-03T16:21:12.188Z,22.88
2022-11-03T16:22:44.318Z,19.42
2022-11-03T16:24:16.346Z,19.02
2022-11-03T16:25:51.203Z,17.45
2022-11-03T16:27:23.585Z,17.15
2022-11-03T16:28:55.751Z,15.73
2022-11-03T16:30:30.278Z,17.02
2022-11-03T16:32:02.453Z,17.90
2022-11-03T16:33:35.218Z,19.83
2022-11-03T16:35:07.980Z,18.27
2022-11-03T16:36:40.309Z,21.35
2022-11-03T16:38:14.023Z,23.63
2022-11-03T16:39:46.330Z,16.65
2022-11-03T16:41:18.567Z,19.60
2022-11-03T16:42:50.894Z,16.15
2022-11-03T16:44:23.381Z,18.90
2022-11-03T16:45:56.993Z,16.37
2022-11-03T16:47:29.236Z,17.38
2022-11-03T16:49:01.493Z,21.90
2022-11-03T16:50:34.097Z,25.52
2022-11-03T16:52:06.234Z,18.60
2022-11-03T16:53:38.824Z,17.90
2022-11-03T16:55:15.263Z,20.48
2022-11-03T16:56:51.910Z,20.73
2022-11-03T16:58:26.882Z,17.60
2022-11-03T16:59:59.514Z,18.43
2022-11-03T17:01:32.587Z,15.82
2022-11-03T17:03:05.617Z,15.05
2022-11-03T17:04:38.733Z,17.15
2022-11-03T17:06:11.237Z,18.67
2022-11-03T17:07:47.493Z,16.63
2022-11-03T17:09:24.858Z,15.88
2022-11-03T17:10:57.651Z,13.88
2022-11-03T17:12:33.459Z,16.98
2022-11-03T17:14:07.739Z,14.77
2022-11-03T17:15:41.751Z,16.55
2022-11-03T17:17:14.717Z,16.83
2022-11-03T17:18:48.001Z,16.80
2022-11-03T17:20:20.615Z,17.58
2022-11-03T17:21:53.411Z,18.10
2022-11-03T17:23:25.981Z,16.15
2022-11-03T17:24:58.225Z,17.08
2022-11-03T17:26:42.897Z,16.38
2022-11-03T17:28:19.183Z,17.10
2022-11-03T17:29:58.137Z,16.33
2022-11-03T17:31:30.459Z,13.95
2022-11-03T17:33:06.977Z,13.50
2022-11-03T17:34:39.313Z,13.63
2022-11-03T17:36:11.653Z,16.63
2022-11-03T17:37:44.512Z,14.02
2022-11-03T17:39:20.353Z,16.75
2022-11-03T17:40:52.656Z,19.90
2022-11-03T17:42:26.937Z,14.45
2022-11-03T17:43:59.266Z,17.52
2022-11-03T17:45:31.577Z,16.50
2022-11-03T17:47:03.682Z,14.85
2022-11-03T17:48:35.802Z,14.35
2022-11-03T17:50:09.420Z,15.00
2022-11-03T17:51:42.701Z,17.25
2022-11-03T17:53:21.050Z,15.60
2022-11-03T17:54:54.246Z,14.60
2022-11-03T17:56:31.098Z,16.92
2022-11-03T17:58:05.154Z,16.67
2022-11-03T17:59:42.707Z,17.10
2022-11-03T18:01:25.821Z,15.93
2022-11-03T18:02:58.333Z,15.43
2022-11-03T18:04:30.559Z,13.98
2022-11-03T18:06:03.185Z,13.50
2022-11-03T18:07:35.532Z,15.23
2022-11-03T18:09:08.019Z,14.07
2022-11-03T18:10:46.375Z,15.48
2022-11-03T18:12:39.967Z,17.75
2022-11-03T18:14:12.415Z,15.40
2022-11-03T18:16:05.986Z,15.68
2022-11-03T18:17:38.024Z,15.50
2022-11-03T18:19:15.236Z,14.45
2022-11-03T18:20:53.367Z,14.57
2022-11-03T18:22:25.915Z,15.23
2022-11-03T18:23:59.043Z,14.95
2022-11-03T18:25:31.650Z,15.88
2022-11-03T18:27:05.632Z,12.32
2022-11-03T18:28:38.038Z,13.57
2022-11-03T18:30:11.764Z,16.17
2022-11-03T18:31:51.023Z,12.43
2022-11-03T18:33:33.752Z,12.38
2022-11-03T18:35:06.338Z,13.27
2022-11-03T18:36:38.522Z,12.95
2022-11-03T18:38:14.836Z,16.35
2022-11-03T18:39:47.113Z,14.35
2022-11-03T18:43:15.780Z,13.82
2022-11-03T18:44:49.373Z,15.77
2022-11-03T18:46:21.778Z,13.10
2022-11-03T18:47:57.117Z,16.48
2022-11-03T18:49:33.369Z,14.13
2022-11-03T18:51:09.361Z,14.27
2022-11-03T18:52:44.129Z,14.10
2022-11-03T18:56:13.463Z,12.48
2022-11-03T18:57:45.869Z,13.93
2022-11-03T18:59:24.493Z,13.10
2022-11-03T19:00:56.662Z,14.13
2022-11-03T19:02:29.170Z,15.10
2022-11-03T19:04:01.339Z,12.93
2022-11-03T19:05:34.136Z,14.27
2022-11-03T19:07:09.107Z,14.73
2022-11-03T19:08:42.778Z,14.32
2022-11-03T19:10:17.843Z,15.00
2022-11-03T19:13:29.238Z,15.93
2022-11-03T19:15:01.528Z,14.73
2022-11-03T19:16:42.309Z,14.13
2022-11-03T19:18:22.303Z,13.55
2022-11-03T19:19:54.798Z,15.65
2022-11-03T19:21:28.027Z,15.25
2022-11-03T19:23:00.025Z,15.85
2022-11-03T19:24:32.310Z,14.15
2022-11-03T19:26:05.660Z,14.52
2022-11-03T19:27:40.029Z,12.95
2022-11-03T19:29:15.494Z,14.30
2022-11-03T19:30:47.944Z,15.13
2022-11-03T19:32:26.674Z,14.85
2022-11-03T19:33:59.076Z,15.20
2022-11-03T19:35:35.505Z,13.77
2022-11-03T19:37:07.673Z,14.90
2022-11-03T19:38:41.056Z,15.00
2022-11-03T19:40:18.419Z,13.73
2022-11-03T19:42:09.280Z,12.57
2022-11-03T19:43:41.596Z,14.65
2022-11-03T19:45:16.589Z,15.40
2022-11-03T19:46:49.707Z,13.80
2022-11-03T19:48:24.499Z,15.68
2022-11-03T19:49:57.496Z,13.50
2022-11-03T19:51:30.222Z,17.35
2022-11-03T19:53:04.129Z,14.02
2022-11-03T19:54:36.118Z,14.35
2022-11-03T19:56:08.187Z,13.70
2022-11-03T19:57:40.274Z,10.88
2022-11-03T19:59:13.642Z,13.85
2022-11-03T20:00:46.260Z,12.90
2022-11-03T20:02:18.489Z,14.33
2022-11-03T20:03:50.615Z,14.25
2022-11-03T20:05:22.564Z,15.15
2022-11-03T20:06:55.104Z,15.50
2022-11-03T20:08:32.504Z,14.47
2022-11-03T20:10:04.894Z,15.20
2022-11-03T20:11:37.324Z,14.25
2022-11-03T20:13:11.728Z,15.90
2022-11-03T20:14:43.807Z,14.43
2022-11-03T20:16:17.439Z,13.63
2022-11-03T20:17:51.195Z,16.17
2022-11-03T20:19:23.386Z,14.68
2022-11-03T20:20:55.709Z,17.38
2022-11-03T20:22:31.506Z,17.25
2022-11-03T20:24:05.155Z,17.95
2022-11-03T20:25:37.747Z,15.98
2022-11-03T20:27:11.693Z,14.95
2022-11-03T20:28:44.622Z,15.23
2022-11-03T20:30:18.965Z,13.57
2022-11-03T20:31:51.048Z,13.27
2022-11-03T20:33:25.107Z,13.80
2022-11-03T20:34:57.170Z,13.65
2022-11-03T20:36:31.063Z,14.18
2022-11-03T20:38:03.164Z,14.20
2022-11-03T20:39:35.270Z,14.35
2022-11-03T20:41:13.619Z,13.73
2022-11-03T20:42:47.231Z,12.82
2022-11-03T20:44:19.670Z,13.65
2022-11-03T20:45:51.945Z,18.50
2022-11-03T20:47:24.100Z,16.20
2022-11-03T20:48:56.653Z,15.65
2022-11-03T20:50:30.804Z,15.00
2022-11-03T20:52:04.356Z,15.43
2022-11-03T20:53:36.465Z,16.90
2022-11-03T20:55:19.916Z,13.40
2022-11-03T20:56:51.975Z,14.10
2022-11-03T20:58:23.983Z,15.93
2022-11-03T20:59:55.984Z,16.27
2022-11-03T21:01:31.001Z,13.63
2022-11-03T21:03:03.352Z,14.77
2022-11-03T21:04:35.403Z,14.68
2022-11-03T21:06:07.553Z,15.38
2022-11-03T21:07:39.647Z,15.60
2022-11-03T21:09:17.990Z,16.40
2022-11-03T21:10:49.965Z,15.65
2022-11-03T21:12:21.986Z,15.18
2022-11-03T21:13:56.617Z,14.70
2022-11-03T21:16:10.485Z,14.68
2022-11-03T21:17:58.018Z,14.40
2022-11-03T21:19:50.246Z,17.67
2022-11-03T21:21:22.711Z,16.15
2022-11-03T21:22:54.819Z,15.75
2022-11-03T21:25:59.118Z,13.18
2022-11-03T21:27:31.206Z,16.30
2022-11-03T21:29:03.271Z,16.17
2022-11-03T21:30:35.421Z,14.77
2022-11-03T21:32:09.993Z,20.95
2022-11-03T21:33:42.219Z,16.73
2022-11-03T21:35:16.721Z,14.45
2022-11-03T21:36:48.736Z,14.75
2022-11-03T21:38:20.796Z,13.07
2022-11-03T21:39:52.866Z,15.60
2022-11-03T21:41:43.271Z,13.48
2022-11-03T21:43:34.563Z,17.08
2022-11-03T21:45:07.168Z,14.10
2022-11-03T21:46:39.401Z,15.18
2022-11-03T21:48:30.317Z,15.45
2022-11-03T21:50:02.482Z,12.88
2022-11-03T21:51:34.543Z,15.45
2022-11-03T21:53:07.353Z,13.15
2022-11-03T21:54:40.518Z,14.57
2022-11-03T21:56:15.551Z,13.70
2022-11-03T21:57:47.801Z,17.23
2022-11-03T21:59:20.044Z,17.27
2022-11-03T22:00:52.270Z,16.83
2022-11-03T22:02:24.999Z,15.85
2022-11-03T22:03:58.613Z,16.42
2022-11-03T22:07:02.512Z,15.98
2022-11-03T22:08:34.612Z,18.67
2022-11-03T22:10:07.039Z,14.20
2022-11-03T22:11:39.090Z,18.50
2022-11-03T22:13:11.563Z,16.65
2022-11-03T22:15:02.559Z,16.63
2022-11-03T22:16:37.655Z,17.10
2022-11-03T22:18:09.955Z,17.67
2022-11-03T22:20:00.590Z,22.70
2022-11-03T22:21:51.342Z,24.95
2022-11-03T22:23:55.908Z,25.40
2022-11-03T22:25:46.978Z,17.63
2022-11-03T22:27:19.104Z,17.73
2022-11-03T22:29:11.187Z,20.90
2022-11-03T22:32:16.413Z,16.40
2022-11-03T22:34:07.099Z,17.05
2022-11-03T22:35:57.649Z,15.50
2022-11-03T22:41:12.001Z,18.05
2022-11-03T22:43:02.988Z,17.45
2022-11-03T22:44:53.870Z,15.93
2022-11-03T22:46:25.887Z,17.55
2022-11-03T22:47:57.962Z,15.80
2022-11-03T22:49:29.983Z,18.60
2022-11-03T22:51:16.110Z,13.85
2022-11-03T22:52:48.091Z,12.95
2022-11-03T22:54:20.121Z,14.30
2022-11-03T22:55:53.129Z,15.20
2022-11-03T22:57:25.129Z,18.45
2022-11-03T22:58:57.475Z,13.90
2022-11-03T23:00:29.572Z,16.40
2022-11-03T23:02:01.687Z,14.77
2022-11-03T23:03:38.194Z,17.48
2022-11-03T23:05:10.252Z,18.48
2022-11-03T23:06:42.338Z,13.93
2022-11-03T23:08:14.388Z,14.93
2022-11-03T23:09:46.443Z,15.25
2022-11-03T23:11:24.245Z,15.73
2022-11-03T23:12:56.236Z,17.02
2022-11-03T23:16:35.583Z,14.30
2022-11-03T23:18:26.453Z,14.48
2022-11-03T23:20:16.966Z,15.60
2022-11-03T23:21:50.762Z,16.42
2022-11-03T23:23:41.308Z,16.17
2022-11-03T23:25:13.460Z,18.65
2022-11-03T23:26:46.278Z,17.92
2022-11-03T23:28:18.391Z,17.13
2022-11-03T23:29:50.388Z,15.32
2022-11-03T23:31:22.830Z,15.50
2022-11-03T23:32:54.852Z,14.70
2022-11-03T23:34:27.321Z,19.40
2022-11-03T23:36:06.686Z,16.58
2022-11-03T23:37:38.814Z,15.88
2022-11-03T23:39:15.490Z,16.65
2022-11-03T23:40:47.504Z,16.40
2022-11-03T23:42:19.611Z,15.45
2022-11-03T23:43:54.040Z,17.73
2022-11-03T23:45:44.551Z,16.73
2022-11-03T23:47:34.867Z,16.77
2022-11-03T23:49:07.846Z,17.77
2022-11-03T23:50:39.854Z,17.67
2022-11-03T23:52:11.866Z,19.27
2022-11-03T23:53:44.781Z,15.02
2022-11-03T23:55:16.885Z,20.10
2022-11-03T23:57:07.494Z,17.17
2022-11-03T23:58:39.526Z,16.33
